sensor_id;sensor_type;location;lat;lon;timestamp;P1;durP1;ratioP1;P2;durP2;ratioP2
22144;SDS011;11238;48.730;11.566;2023-02-28T00:01:31;7.93;;;4.22;;
22144;SDS011;11238;48.730;11.566;2023-02-28T00:03:57;7.65;;;4.50;;
22144;SDS011;11238;48.730;11.566;2023-02-28T00:06:23;6.53;;;4.53;;
22144;SDS011;11238;48.730;11.566;2023-02-28T00:08:49;7.75;;;4.53;;
22144;SDS011;11238;48.730;11.566;2023-02-28T00:11:16;8.90;;;4.47;;
22144;SDS011;11238;48.730;11.566;2023-02-28T00:13:44;9.10;;;4.88;;
22144;SDS011;11238;48.730;11.566;2023-02-28T00:16:12;5.82;;;4.38;;
22144;SDS011;11238;48.730;11.566;2023-02-28T00:18:45;9.27;;;4.20;;
22144;SDS011;11238;48.730;11.566;2023-02-28T00:21:13;6.63;;;4.03;;
22144;SDS011;11238;48.730;11.566;2023-02-28T00:23:38;5.90;;;4.03;;
22144;SDS011;11238;48.730;11.566;2023-02-28T00:26:04;7.72;;;4.57;;
22144;SDS011;11238;48.730;11.566;2023-02-28T00:28:30;6.70;;;4.32;;
22144;SDS011;11238;48.730;11.566;2023-02-28T00:30:58;6.45;;;4.25;;
22144;SDS011;11238;48.730;11.566;2023-02-28T00:33:25;7.47;;;4.72;;
22144;SDS011;11238;48.730;11.566;2023-02-28T00:36:00;7.18;;;4.72;;
22144;SDS011;11238;48.730;11.566;2023-02-28T00:38:29;5.50;;;4.35;;
22144;SDS011;11238;48.730;11.566;2023-02-28T00:40:55;6.30;;;4.38;;
22144;SDS011;11238;48.730;11.566;2023-02-28T00:43:21;7.93;;;4.60;;
22144;SDS011;11238;48.730;11.566;2023-02-28T00:45:47;6.30;;;4.35;;
22144;SDS011;11238;48.730;11.566;2023-02-28T00:48:13;8.13;;;4.38;;
22144;SDS011;11238;48.730;11.566;2023-02-28T00:50:39;8.45;;;4.60;;
22144;SDS011;11238;48.730;11.566;2023-02-28T00:53:04;7.63;;;4.85;;
22144;SDS011;11238;48.730;11.566;2023-02-28T00:55:30;6.32;;;4.53;;
22144;SDS011;11238;48.730;11.566;2023-02-28T00:57:56;5.32;;;4.10;;
22144;SDS011;11238;48.730;11.566;2023-02-28T01:00:24;9.75;;;4.38;;
22144;SDS011;11238;48.730;11.566;2023-02-28T01:02:50;6.40;;;4.50;;
22144;SDS011;11238;48.730;11.566;2023-02-28T01:05:15;6.45;;;4.40;;
22144;SDS011;11238;48.730;11.566;2023-02-28T01:07:41;8.75;;;4.68;;
22144;SDS011;11238;48.730;11.566;2023-02-28T01:10:07;6.80;;;4.68;;
22144;SDS011;11238;48.730;11.566;2023-02-28T01:12:33;8.20;;;4.55;;
22144;SDS011;11238;48.730;11.566;2023-02-28T01:14:59;7.25;;;4.15;;
22144;SDS011;11238;48.730;11.566;2023-02-28T01:17:25;5.68;;;4.28;;
22144;SDS011;11238;48.730;11.566;2023-02-28T01:19:52;6.78;;;4.50;;
22144;SDS011;11238;48.730;11.566;2023-02-28T01:22:20;8.40;;;4.45;;
22144;SDS011;11238;48.730;11.566;2023-02-28T01:24:46;6.30;;;4.80;;
22144;SDS011;11238;48.730;11.566;2023-02-28T01:27:13;8.23;;;4.53;;
22144;SDS011;11238;48.730;11.566;2023-02-28T01:29:39;6.70;;;4.68;;
22144;SDS011;11238;48.730;11.566;2023-02-28T01:32:04;8.77;;;4.93;;
22144;SDS011;11238;48.730;11.566;2023-02-28T01:34:31;6.07;;;4.28;;
22144;SDS011;11238;48.730;11.566;2023-02-28T01:36:57;7.10;;;4.68;;
22144;SDS011;11238;48.730;11.566;2023-02-28T01:39:24;8.73;;;4.93;;
22144;SDS011;11238;48.730;11.566;2023-02-28T01:41:51;7.00;;;4.45;;
22144;SDS011;11238;48.730;11.566;2023-02-28T01:47:21;6.22;;;4.68;;
22144;SDS011;11238;48.730;11.566;2023-02-28T01:49:48;6.13;;;4.82;;
22144;SDS011;11238;48.730;11.566;2023-02-28T01:52:17;7.32;;;4.60;;
22144;SDS011;11238;48.730;11.566;2023-02-28T01:54:46;8.07;;;4.57;;
22144;SDS011;11238;48.730;11.566;2023-02-28T01:57:17;7.70;;;4.90;;
22144;SDS011;11238;48.730;11.566;2023-02-28T02:00:08;6.75;;;4.70;;
22144;SDS011;11238;48.730;11.566;2023-02-28T02:02:46;8.85;;;4.55;;
22144;SDS011;11238;48.730;11.566;2023-02-28T02:05:17;8.40;;;4.75;;
22144;SDS011;11238;48.730;11.566;2023-02-28T02:07:48;6.70;;;4.35;;
22144;SDS011;11238;48.730;11.566;2023-02-28T02:10:19;7.18;;;4.78;;
22144;SDS011;11238;48.730;11.566;2023-02-28T02:16:18;7.95;;;4.60;;
22144;SDS011;11238;48.730;11.566;2023-02-28T02:18:58;6.80;;;4.78;;
22144;SDS011;11238;48.730;11.566;2023-02-28T02:43:40;8.82;;;5.20;;
22144;SDS011;11238;48.730;11.566;2023-02-28T02:46:15;7.10;;;4.47;;
22144;SDS011;11238;48.730;11.566;2023-02-28T02:48:46;7.90;;;5.00;;
22144;SDS011;11238;48.730;11.566;2023-02-28T02:51:17;6.95;;;4.63;;
22144;SDS011;11238;48.730;11.566;2023-02-28T02:53:48;9.18;;;5.03;;
22144;SDS011;11238;48.730;11.566;2023-02-28T02:56:19;8.33;;;5.37;;
22144;SDS011;11238;48.730;11.566;2023-02-28T02:58:48;8.35;;;5.30;;
22144;SDS011;11238;48.730;11.566;2023-02-28T03:01:20;9.05;;;5.32;;
22144;SDS011;11238;48.730;11.566;2023-02-28T03:04:00;9.93;;;5.50;;
22144;SDS011;11238;48.730;11.566;2023-02-28T03:06:29;10.27;;;5.30;;
22144;SDS011;11238;48.730;11.566;2023-02-28T03:08:55;8.13;;;5.28;;
22144;SDS011;11238;48.730;11.566;2023-02-28T03:11:22;7.70;;;5.10;;
22144;SDS011;11238;48.730;11.566;2023-02-28T03:22:05;7.72;;;5.15;;
22144;SDS011;11238;48.730;11.566;2023-02-28T03:24:41;7.90;;;5.53;;
22144;SDS011;11238;48.730;11.566;2023-02-28T03:27:23;7.22;;;5.07;;
22144;SDS011;11238;48.730;11.566;2023-02-28T03:32:34;7.88;;;5.50;;
22144;SDS011;11238;48.730;11.566;2023-02-28T03:35:16;7.72;;;5.35;;
22144;SDS011;11238;48.730;11.566;2023-02-28T03:37:48;8.68;;;5.50;;
22144;SDS011;11238;48.730;11.566;2023-02-28T03:40:19;7.90;;;5.47;;
22144;SDS011;11238;48.730;11.566;2023-02-28T03:42:50;9.30;;;5.78;;
22144;SDS011;11238;48.730;11.566;2023-02-28T03:45:22;8.50;;;5.45;;
22144;SDS011;11238;48.730;11.566;2023-02-28T03:47:57;9.77;;;5.75;;
22144;SDS011;11238;48.730;11.566;2023-02-28T03:50:30;9.30;;;5.72;;
22144;SDS011;11238;48.730;11.566;2023-02-28T03:53:12;8.82;;;6.18;;
22144;SDS011;11238;48.730;11.566;2023-02-28T03:55:45;8.55;;;5.97;;
22144;SDS011;11238;48.730;11.566;2023-02-28T03:58:46;8.27;;;6.07;;
22144;SDS011;11238;48.730;11.566;2023-02-28T04:01:23;10.50;;;6.15;;
22144;SDS011;11238;48.730;11.566;2023-02-28T04:03:59;10.60;;;6.13;;
22144;SDS011;11238;48.730;11.566;2023-02-28T04:06:26;8.52;;;5.93;;
22144;SDS011;11238;48.730;11.566;2023-02-28T04:08:52;8.57;;;5.80;;
22144;SDS011;11238;48.730;11.566;2023-02-28T04:11:20;9.38;;;6.20;;
22144;SDS011;11238;48.730;11.566;2023-02-28T04:13:55;8.32;;;5.55;;
22144;SDS011;11238;48.730;11.566;2023-02-28T04:16:21;9.07;;;6.38;;
22144;SDS011;11238;48.730;11.566;2023-02-28T04:18:47;9.07;;;5.85;;
22144;SDS011;11238;48.730;11.566;2023-02-28T04:21:13;9.20;;;5.97;;
22144;SDS011;11238;48.730;11.566;2023-02-28T04:23:39;9.48;;;5.97;;
22144;SDS011;11238;48.730;11.566;2023-02-28T04:26:05;9.45;;;6.25;;
22144;SDS011;11238;48.730;11.566;2023-02-28T04:28:32;10.75;;;6.40;;
22144;SDS011;11238;48.730;11.566;2023-02-28T04:31:02;11.60;;;6.47;;
22144;SDS011;11238;48.730;11.566;2023-02-28T04:33:30;8.73;;;6.13;;
22144;SDS011;11238;48.730;11.566;2023-02-28T04:36:07;11.75;;;6.50;;
22144;SDS011;11238;48.730;11.566;2023-02-28T04:38:34;10.85;;;6.40;;
22144;SDS011;11238;48.730;11.566;2023-02-28T04:41:02;8.73;;;6.03;;
22144;SDS011;11238;48.730;11.566;2023-02-28T04:43:29;10.80;;;6.50;;
22144;SDS011;11238;48.730;11.566;2023-02-28T04:45:56;8.60;;;6.22;;
22144;SDS011;11238;48.730;11.566;2023-02-28T04:48:24;9.38;;;6.72;;
22144;SDS011;11238;48.730;11.566;2023-02-28T04:50:52;11.25;;;6.70;;
22144;SDS011;11238;48.730;11.566;2023-02-28T04:53:18;9.77;;;6.63;;
22144;SDS011;11238;48.730;11.566;2023-02-28T04:55:47;9.75;;;6.80;;
22144;SDS011;11238;48.730;11.566;2023-02-28T04:58:13;11.80;;;6.38;;
22144;SDS011;11238;48.730;11.566;2023-02-28T05:00:40;10.85;;;6.85;;
22144;SDS011;11238;48.730;11.566;2023-02-28T05:03:09;13.77;;;7.75;;
22144;SDS011;11238;48.730;11.566;2023-02-28T05:05:35;12.70;;;7.88;;
22144;SDS011;11238;48.730;11.566;2023-02-28T05:08:01;12.13;;;7.93;;
22144;SDS011;11238;48.730;11.566;2023-02-28T05:10:27;10.65;;;6.95;;
22144;SDS011;11238;48.730;11.566;2023-02-28T05:12:53;11.85;;;7.65;;
22144;SDS011;11238;48.730;11.566;2023-02-28T05:15:18;14.23;;;7.50;;
22144;SDS011;11238;48.730;11.566;2023-02-28T05:17:44;13.95;;;7.38;;
22144;SDS011;11238;48.730;11.566;2023-02-28T05:20:10;10.18;;;7.43;;
22144;SDS011;11238;48.730;11.566;2023-02-28T05:22:38;14.73;;;6.93;;
22144;SDS011;11238;48.730;11.566;2023-02-28T05:25:09;9.35;;;6.53;;
22144;SDS011;11238;48.730;11.566;2023-02-28T05:27:38;10.90;;;6.38;;
22144;SDS011;11238;48.730;11.566;2023-02-28T05:30:04;11.63;;;7.28;;
22144;SDS011;11238;48.730;11.566;2023-02-28T05:32:31;11.25;;;7.40;;
22144;SDS011;11238;48.730;11.566;2023-02-28T05:34:57;11.07;;;7.10;;
22144;SDS011;11238;48.730;11.566;2023-02-28T05:37:23;10.98;;;7.30;;
22144;SDS011;11238;48.730;11.566;2023-02-28T05:39:49;10.57;;;7.10;;
22144;SDS011;11238;48.730;11.566;2023-02-28T05:42:15;12.93;;;8.30;;
22144;SDS011;11238;48.730;11.566;2023-02-28T05:44:41;15.55;;;9.20;;
22144;SDS011;11238;48.730;11.566;2023-02-28T05:47:07;18.15;;;10.00;;
22144;SDS011;11238;48.730;11.566;2023-02-28T05:49:33;17.00;;;9.18;;
22144;SDS011;11238;48.730;11.566;2023-02-28T05:51:59;15.32;;;8.50;;
22144;SDS011;11238;48.730;11.566;2023-02-28T05:54:26;15.07;;;9.02;;
22144;SDS011;11238;48.730;11.566;2023-02-28T05:56:52;17.08;;;9.60;;
22144;SDS011;11238;48.730;11.566;2023-02-28T05:59:18;19.00;;;9.73;;
22144;SDS011;11238;48.730;11.566;2023-02-28T06:01:44;19.58;;;10.40;;
22144;SDS011;11238;48.730;11.566;2023-02-28T06:04:13;15.07;;;9.48;;
22144;SDS011;11238;48.730;11.566;2023-02-28T06:06:43;15.70;;;9.25;;
22144;SDS011;11238;48.730;11.566;2023-02-28T06:09:10;14.02;;;9.23;;
22144;SDS011;11238;48.730;11.566;2023-02-28T06:11:36;15.02;;;9.15;;
22144;SDS011;11238;48.730;11.566;2023-02-28T06:14:03;26.33;;;11.75;;
22144;SDS011;11238;48.730;11.566;2023-02-28T06:16:30;37.17;;;14.32;;
22144;SDS011;11238;48.730;11.566;2023-02-28T06:18:58;33.88;;;13.55;;
22144;SDS011;11238;48.730;11.566;2023-02-28T06:21:27;17.13;;;9.35;;
22144;SDS011;11238;48.730;11.566;2023-02-28T06:23:54;21.25;;;9.55;;
22144;SDS011;11238;48.730;11.566;2023-02-28T06:26:21;16.45;;;9.07;;
22144;SDS011;11238;48.730;11.566;2023-02-28T06:28:47;17.33;;;8.77;;
22144;SDS011;11238;48.730;11.566;2023-02-28T06:31:14;14.48;;;8.65;;
22144;SDS011;11238;48.730;11.566;2023-02-28T06:33:42;13.02;;;8.63;;
22144;SDS011;11238;48.730;11.566;2023-02-28T06:36:10;16.52;;;8.88;;
22144;SDS011;11238;48.730;11.566;2023-02-28T06:38:37;15.93;;;8.80;;
22144;SDS011;11238;48.730;11.566;2023-02-28T06:41:04;14.45;;;8.90;;
22144;SDS011;11238;48.730;11.566;2023-02-28T06:43:32;14.95;;;8.77;;
22144;SDS011;11238;48.730;11.566;2023-02-28T06:46:02;13.82;;;8.40;;
22144;SDS011;11238;48.730;11.566;2023-02-28T06:48:29;15.55;;;8.93;;
22144;SDS011;11238;48.730;11.566;2023-02-28T06:51:03;14.85;;;8.90;;
22144;SDS011;11238;48.730;11.566;2023-02-28T06:53:50;14.23;;;8.65;;
22144;SDS011;11238;48.730;11.566;2023-02-28T06:56:17;15.48;;;8.70;;
22144;SDS011;11238;48.730;11.566;2023-02-28T06:58:47;14.55;;;8.52;;
22144;SDS011;11238;48.730;11.566;2023-02-28T07:01:14;16.00;;;8.60;;
22144;SDS011;11238;48.730;11.566;2023-02-28T07:03:40;12.95;;;8.07;;
22144;SDS011;11238;48.730;11.566;2023-02-28T07:06:06;17.02;;;9.57;;
22144;SDS011;11238;48.730;11.566;2023-02-28T07:08:33;13.85;;;9.07;;
22144;SDS011;11238;48.730;11.566;2023-02-28T07:10:59;18.38;;;10.48;;
22144;SDS011;11238;48.730;11.566;2023-02-28T07:13:25;17.77;;;10.05;;
22144;SDS011;11238;48.730;11.566;2023-02-28T07:15:55;19.27;;;10.45;;
22144;SDS011;11238;48.730;11.566;2023-02-28T07:18:21;18.13;;;10.65;;
22144;SDS011;11238;48.730;11.566;2023-02-28T07:20:50;14.73;;;8.73;;
22144;SDS011;11238;48.730;11.566;2023-02-28T07:23:17;15.57;;;9.38;;
22144;SDS011;11238;48.730;11.566;2023-02-28T07:25:43;16.63;;;9.50;;
22144;SDS011;11238;48.730;11.566;2023-02-28T07:28:32;14.43;;;8.93;;
22144;SDS011;11238;48.730;11.566;2023-02-28T07:31:06;14.45;;;8.82;;
22144;SDS011;11238;48.730;11.566;2023-02-28T07:33:33;14.65;;;8.70;;
22144;SDS011;11238;48.730;11.566;2023-02-28T07:36:17;14.93;;;8.68;;
22144;SDS011;11238;48.730;11.566;2023-02-28T07:38:44;15.35;;;8.38;;
22144;SDS011;11238;48.730;11.566;2023-02-28T07:41:21;17.35;;;8.55;;
22144;SDS011;11238;48.730;11.566;2023-02-28T07:43:48;14.65;;;9.07;;
22144;SDS011;11238;48.730;11.566;2023-02-28T07:46:15;15.75;;;8.60;;
22144;SDS011;11238;48.730;11.566;2023-02-28T07:48:42;16.42;;;9.32;;
22144;SDS011;11238;48.730;11.566;2023-02-28T07:51:09;14.48;;;8.68;;
22144;SDS011;11238;48.730;11.566;2023-02-28T07:53:35;14.98;;;9.05;;
22144;SDS011;11238;48.730;11.566;2023-02-28T07:56:01;14.70;;;9.10;;
22144;SDS011;11238;48.730;11.566;2023-02-28T07:58:29;17.08;;;10.23;;
22144;SDS011;11238;48.730;11.566;2023-02-28T08:00:56;16.02;;;9.10;;
22144;SDS011;11238;48.730;11.566;2023-02-28T08:03:22;17.35;;;9.60;;
22144;SDS011;11238;48.730;11.566;2023-02-28T08:05:49;12.32;;;9.07;;
22144;SDS011;11238;48.730;11.566;2023-02-28T08:08:16;13.50;;;8.98;;
22144;SDS011;11238;48.730;11.566;2023-02-28T08:10:42;14.65;;;9.27;;
22144;SDS011;11238;48.730;11.566;2023-02-28T08:13:08;17.27;;;9.40;;
22144;SDS011;11238;48.730;11.566;2023-02-28T08:15:34;14.25;;;8.50;;
22144;SDS011;11238;48.730;11.566;2023-02-28T08:18:00;14.10;;;8.48;;
22144;SDS011;11238;48.730;11.566;2023-02-28T08:20:26;12.70;;;8.40;;
22144;SDS011;11238;48.730;11.566;2023-02-28T08:22:52;15.30;;;8.98;;
22144;SDS011;11238;48.730;11.566;2023-02-28T08:25:18;14.15;;;8.90;;
22144;SDS011;11238;48.730;11.566;2023-02-28T08:27:44;13.88;;;8.73;;
22144;SDS011;11238;48.730;11.566;2023-02-28T08:30:11;13.68;;;8.05;;
22144;SDS011;11238;48.730;11.566;2023-02-28T08:32:38;12.38;;;8.60;;
22144;SDS011;11238;48.730;11.566;2023-02-28T08:35:04;13.02;;;7.93;;
22144;SDS011;11238;48.730;11.566;2023-02-28T08:37:31;11.35;;;7.85;;
22144;SDS011;11238;48.730;11.566;2023-02-28T08:39:56;12.52;;;8.27;;
22144;SDS011;11238;48.730;11.566;2023-02-28T08:42:23;18.25;;;8.00;;
22144;SDS011;11238;48.730;11.566;2023-02-28T08:44:49;14.38;;;7.85;;
22144;SDS011;11238;48.730;11.566;2023-02-28T08:47:16;13.23;;;7.72;;
22144;SDS011;11238;48.730;11.566;2023-02-28T08:49:41;13.63;;;7.78;;
22144;SDS011;11238;48.730;11.566;2023-02-28T08:52:07;12.40;;;7.50;;
22144;SDS011;11238;48.730;11.566;2023-02-28T08:54:33;12.02;;;8.00;;
22144;SDS011;11238;48.730;11.566;2023-02-28T08:57:00;11.80;;;8.20;;
22144;SDS011;11238;48.730;11.566;2023-02-28T08:59:27;12.95;;;7.63;;
22144;SDS011;11238;48.730;11.566;2023-02-28T09:01:54;14.48;;;8.10;;
22144;SDS011;11238;48.730;11.566;2023-02-28T09:04:20;11.35;;;7.72;;
22144;SDS011;11238;48.730;11.566;2023-02-28T09:06:46;12.50;;;7.68;;
22144;SDS011;11238;48.730;11.566;2023-02-28T09:09:13;12.23;;;7.93;;
22144;SDS011;11238;48.730;11.566;2023-02-28T09:11:41;13.68;;;6.80;;
22144;SDS011;11238;48.730;11.566;2023-02-28T09:14:07;10.77;;;6.70;;
22144;SDS011;11238;48.730;11.566;2023-02-28T09:16:33;13.65;;;6.88;;
22144;SDS011;11238;48.730;11.566;2023-02-28T09:19:00;18.00;;;7.53;;
22144;SDS011;11238;48.730;11.566;2023-02-28T09:21:25;10.52;;;6.88;;
22144;SDS011;11238;48.730;11.566;2023-02-28T09:23:51;9.43;;;6.30;;
22144;SDS011;11238;48.730;11.566;2023-02-28T09:26:19;10.18;;;6.30;;
22144;SDS011;11238;48.730;11.566;2023-02-28T09:28:50;10.52;;;7.10;;
22144;SDS011;11238;48.730;11.566;2023-02-28T09:31:18;10.90;;;7.25;;
22144;SDS011;11238;48.730;11.566;2023-02-28T09:33:49;10.55;;;6.53;;
22144;SDS011;11238;48.730;11.566;2023-02-28T09:36:15;22.00;;;11.50;;
22144;SDS011;11238;48.730;11.566;2023-02-28T09:38:41;12.30;;;8.02;;
22144;SDS011;11238;48.730;11.566;2023-02-28T09:41:10;11.15;;;7.03;;
22144;SDS011;11238;48.730;11.566;2023-02-28T09:43:40;12.02;;;7.20;;
22144;SDS011;11238;48.730;11.566;2023-02-28T09:46:28;13.10;;;6.68;;
22144;SDS011;11238;48.730;11.566;2023-02-28T09:48:55;9.70;;;7.15;;
22144;SDS011;11238;48.730;11.566;2023-02-28T09:51:44;11.50;;;7.18;;
22144;SDS011;11238;48.730;11.566;2023-02-28T09:54:15;10.82;;;7.13;;
22144;SDS011;11238;48.730;11.566;2023-02-28T09:56:53;12.32;;;6.70;;
22144;SDS011;11238;48.730;11.566;2023-02-28T09:59:46;9.88;;;6.20;;
22144;SDS011;11238;48.730;11.566;2023-02-28T10:08:45;7.68;;;6.10;;
22144;SDS011;11238;48.730;11.566;2023-02-28T10:11:29;11.68;;;6.57;;
22144;SDS011;11238;48.730;11.566;2023-02-28T10:14:06;12.73;;;6.60;;
22144;SDS011;11238;48.730;11.566;2023-02-28T10:19:16;10.95;;;7.07;;
22144;SDS011;11238;48.730;11.566;2023-02-28T10:24:55;9.07;;;6.50;;
22144;SDS011;11238;48.730;11.566;2023-02-28T10:27:28;10.02;;;6.80;;
22144;SDS011;11238;48.730;11.566;2023-02-28T10:29:56;9.40;;;6.88;;
22144;SDS011;11238;48.730;11.566;2023-02-28T10:32:25;11.07;;;6.60;;
22144;SDS011;11238;48.730;11.566;2023-02-28T10:34:59;8.23;;;6.50;;
22144;SDS011;11238;48.730;11.566;2023-02-28T10:37:25;9.75;;;7.10;;
22144;SDS011;11238;48.730;11.566;2023-02-28T10:39:52;9.45;;;6.70;;
22144;SDS011;11238;48.730;11.566;2023-02-28T10:42:26;10.02;;;5.88;;
22144;SDS011;11238;48.730;11.566;2023-02-28T10:47:49;11.52;;;6.70;;
22144;SDS011;11238;48.730;11.566;2023-02-28T10:50:30;10.07;;;6.85;;
22144;SDS011;11238;48.730;11.566;2023-02-28T10:55:35;11.70;;;6.60;;
22144;SDS011;11238;48.730;11.566;2023-02-28T10:58:02;11.85;;;7.13;;
22144;SDS011;11238;48.730;11.566;2023-02-28T11:00:33;12.00;;;6.97;;
22144;SDS011;11238;48.730;11.566;2023-02-28T11:03:00;10.50;;;6.25;;
22144;SDS011;11238;48.730;11.566;2023-02-28T11:05:35;10.25;;;6.43;;
22144;SDS011;11238;48.730;11.566;2023-02-28T11:08:12;9.13;;;6.45;;
22144;SDS011;11238;48.730;11.566;2023-02-28T11:10:44;10.65;;;7.10;;
22144;SDS011;11238;48.730;11.566;2023-02-28T11:13:20;9.27;;;6.88;;
22144;SDS011;11238;48.730;11.566;2023-02-28T11:15:51;11.73;;;6.57;;
22144;SDS011;11238;48.730;11.566;2023-02-28T11:19:02;10.65;;;6.55;;
22144;SDS011;11238;48.730;11.566;2023-02-28T11:21:27;10.15;;;6.95;;
22144;SDS011;11238;48.730;11.566;2023-02-28T11:24:05;11.77;;;7.05;;
22144;SDS011;11238;48.730;11.566;2023-02-28T11:26:43;14.87;;;9.00;;
22144;SDS011;11238;48.730;11.566;2023-02-28T11:29:12;12.07;;;7.57;;
22144;SDS011;11238;48.730;11.566;2023-02-28T11:34:35;13.90;;;9.25;;
22144;SDS011;11238;48.730;11.566;2023-02-28T11:37:03;13.32;;;7.72;;
22144;SDS011;11238;48.730;11.566;2023-02-28T11:39:32;17.00;;;10.60;;
22144;SDS011;11238;48.730;11.566;2023-02-28T11:42:02;18.75;;;11.32;;
22144;SDS011;11238;48.730;11.566;2023-02-28T11:44:43;9.98;;;6.90;;
22144;SDS011;11238;48.730;11.566;2023-02-28T11:52:38;9.85;;;6.60;;
22144;SDS011;11238;48.730;11.566;2023-02-28T11:55:25;10.90;;;7.35;;
22144;SDS011;11238;48.730;11.566;2023-02-28T11:58:21;12.60;;;7.90;;
22144;SDS011;11238;48.730;11.566;2023-02-28T12:03:58;11.15;;;7.93;;
22144;SDS011;11238;48.730;11.566;2023-02-28T12:06:45;11.55;;;7.30;;
22144;SDS011;11238;48.730;11.566;2023-02-28T12:09:40;13.90;;;8.38;;
22144;SDS011;11238;48.730;11.566;2023-02-28T12:22:43;9.32;;;6.53;;
22144;SDS011;11238;48.730;11.566;2023-02-28T12:27:57;11.15;;;7.25;;
22144;SDS011;11238;48.730;11.566;2023-02-28T12:30:33;46.17;;;18.58;;
22144;SDS011;11238;48.730;11.566;2023-02-28T12:33:03;35.22;;;15.48;;
22144;SDS011;11238;48.730;11.566;2023-02-28T12:35:39;10.60;;;7.63;;
22144;SDS011;11238;48.730;11.566;2023-02-28T12:38:14;10.65;;;7.35;;
22144;SDS011;11238;48.730;11.566;2023-02-28T12:44:08;10.13;;;6.68;;
22144;SDS011;11238;48.730;11.566;2023-02-28T12:46:41;11.70;;;6.78;;
22144;SDS011;11238;48.730;11.566;2023-02-28T12:49:13;7.43;;;6.20;;
22144;SDS011;11238;48.730;11.566;2023-02-28T12:51:43;9.50;;;6.50;;
22144;SDS011;11238;48.730;11.566;2023-02-28T12:57:05;10.90;;;7.60;;
22144;SDS011;11238;48.730;11.566;2023-02-28T12:59:54;7.85;;;6.43;;
22144;SDS011;11238;48.730;11.566;2023-02-28T13:10:43;11.10;;;7.47;;
22144;SDS011;11238;48.730;11.566;2023-02-28T13:13:15;8.90;;;6.30;;
22144;SDS011;11238;48.730;11.566;2023-02-28T13:15:56;10.90;;;6.90;;
22144;SDS011;11238;48.730;11.566;2023-02-28T13:21:03;9.30;;;6.53;;
22144;SDS011;11238;48.730;11.566;2023-02-28T13:23:38;9.05;;;6.32;;
22144;SDS011;11238;48.730;11.566;2023-02-28T13:26:17;9.38;;;6.30;;
22144;SDS011;11238;48.730;11.566;2023-02-28T13:31:27;8.45;;;6.22;;
22144;SDS011;11238;48.730;11.566;2023-02-28T13:39:02;9.98;;;6.68;;
22144;SDS011;11238;48.730;11.566;2023-02-28T13:41:48;9.90;;;7.15;;
22144;SDS011;11238;48.730;11.566;2023-02-28T13:45:19;8.23;;;6.60;;
22144;SDS011;11238;48.730;11.566;2023-02-28T13:47:28;8.82;;;6.35;;
22144;SDS011;11238;48.730;11.566;2023-02-28T13:50:38;30.67;;;15.20;;
22144;SDS011;11238;48.730;11.566;2023-02-28T13:58:37;11.93;;;7.72;;
22144;SDS011;11238;48.730;11.566;2023-02-28T14:04:15;11.73;;;7.43;;
22144;SDS011;11238;48.730;11.566;2023-02-28T14:06:48;10.20;;;7.40;;
22144;SDS011;11238;48.730;11.566;2023-02-28T14:09:33;11.27;;;6.70;;
22144;SDS011;11238;48.730;11.566;2023-02-28T14:15:28;8.00;;;6.43;;
22144;SDS011;11238;48.730;11.566;2023-02-28T14:18:16;10.02;;;6.47;;
22144;SDS011;11238;48.730;11.566;2023-02-28T14:20:47;11.07;;;6.95;;
22144;SDS011;11238;48.730;11.566;2023-02-28T14:31:57;9.80;;;7.45;;
22144;SDS011;11238;48.730;11.566;2023-02-28T14:37:00;9.98;;;7.07;;
22144;SDS011;11238;48.730;11.566;2023-02-28T14:39:29;10.60;;;7.50;;
22144;SDS011;11238;48.730;11.566;2023-02-28T14:41:57;10.80;;;8.20;;
22144;SDS011;11238;48.730;11.566;2023-02-28T14:44:30;9.65;;;7.10;;
22144;SDS011;11238;48.730;11.566;2023-02-28T14:46:58;12.32;;;7.82;;
22144;SDS011;11238;48.730;11.566;2023-02-28T14:49:32;11.40;;;7.50;;
22144;SDS011;11238;48.730;11.566;2023-02-28T14:52:05;11.73;;;7.80;;
22144;SDS011;11238;48.730;11.566;2023-02-28T14:57:03;12.63;;;8.55;;
22144;SDS011;11238;48.730;11.566;2023-02-28T14:59:32;12.82;;;7.85;;
22144;SDS011;11238;48.730;11.566;2023-02-28T15:02:19;27.17;;;9.07;;
22144;SDS011;11238;48.730;11.566;2023-02-28T15:07:47;11.98;;;8.55;;
22144;SDS011;11238;48.730;11.566;2023-02-28T15:15:24;12.38;;;9.13;;
22144;SDS011;11238;48.730;11.566;2023-02-28T15:20:59;11.93;;;8.80;;
22144;SDS011;11238;48.730;11.566;2023-02-28T15:23:30;11.77;;;8.75;;
22144;SDS011;11238;48.730;11.566;2023-02-28T15:25:57;14.70;;;8.68;;
22144;SDS011;11238;48.730;11.566;2023-02-28T15:28:24;12.90;;;8.45;;
22144;SDS011;11238;48.730;11.566;2023-02-28T15:31:00;11.27;;;8.07;;
22144;SDS011;11238;48.730;11.566;2023-02-28T15:33:54;11.68;;;8.13;;
22144;SDS011;11238;48.730;11.566;2023-02-28T15:36:26;13.32;;;9.07;;
22144;SDS011;11238;48.730;11.566;2023-02-28T15:39:21;15.55;;;8.80;;
22144;SDS011;11238;48.730;11.566;2023-02-28T15:41:52;12.60;;;8.77;;
22144;SDS011;11238;48.730;11.566;2023-02-28T15:44:43;14.93;;;8.90;;
22144;SDS011;11238;48.730;11.566;2023-02-28T15:47:19;12.25;;;8.55;;
22144;SDS011;11238;48.730;11.566;2023-02-28T15:49:47;12.82;;;8.38;;
22144;SDS011;11238;48.730;11.566;2023-02-28T15:52:39;13.57;;;8.05;;
22144;SDS011;11238;48.730;11.566;2023-02-28T15:55:22;12.52;;;8.30;;
22144;SDS011;11238;48.730;11.566;2023-02-28T15:57:53;13.75;;;8.80;;
22144;SDS011;11238;48.730;11.566;2023-02-28T16:00:23;12.57;;;9.13;;
22144;SDS011;11238;48.730;11.566;2023-02-28T16:02:50;14.52;;;9.73;;
22144;SDS011;11238;48.730;11.566;2023-02-28T16:05:18;14.93;;;9.25;;
22144;SDS011;11238;48.730;11.566;2023-02-28T16:07:57;12.75;;;9.45;;
22144;SDS011;11238;48.730;11.566;2023-02-28T16:10:31;11.60;;;7.97;;
22144;SDS011;11238;48.730;11.566;2023-02-28T16:12:58;11.23;;;8.52;;
22144;SDS011;11238;48.730;11.566;2023-02-28T16:15:25;13.93;;;9.40;;
22144;SDS011;11238;48.730;11.566;2023-02-28T16:17:56;14.65;;;9.55;;
22144;SDS011;11238;48.730;11.566;2023-02-28T16:20:24;15.57;;;10.18;;
22144;SDS011;11238;48.730;11.566;2023-02-28T16:22:53;16.90;;;10.43;;
22144;SDS011;11238;48.730;11.566;2023-02-28T16:25:24;14.13;;;9.50;;
22144;SDS011;11238;48.730;11.566;2023-02-28T16:27:58;15.25;;;9.10;;
22144;SDS011;11238;48.730;11.566;2023-02-28T16:30:26;17.13;;;9.57;;
22144;SDS011;11238;48.730;11.566;2023-02-28T16:32:56;15.95;;;9.35;;
22144;SDS011;11238;48.730;11.566;2023-02-28T16:35:45;14.52;;;9.13;;
22144;SDS011;11238;48.730;11.566;2023-02-28T16:38:11;15.30;;;9.30;;
22144;SDS011;11238;48.730;11.566;2023-02-28T16:40:37;15.20;;;9.35;;
22144;SDS011;11238;48.730;11.566;2023-02-28T16:43:24;12.45;;;9.10;;
22144;SDS011;11238;48.730;11.566;2023-02-28T16:45:54;14.43;;;8.95;;
22144;SDS011;11238;48.730;11.566;2023-02-28T16:48:23;17.15;;;9.23;;
22144;SDS011;11238;48.730;11.566;2023-02-28T16:50:50;19.45;;;11.02;;
22144;SDS011;11238;48.730;11.566;2023-02-28T16:53:16;18.88;;;11.23;;
22144;SDS011;11238;48.730;11.566;2023-02-28T16:55:42;23.95;;;13.07;;
22144;SDS011;11238;48.730;11.566;2023-02-28T16:58:10;23.30;;;13.88;;
22144;SDS011;11238;48.730;11.566;2023-02-28T17:03:14;21.67;;;12.80;;
22144;SDS011;11238;48.730;11.566;2023-02-28T17:05:53;21.20;;;11.93;;
22144;SDS011;11238;48.730;11.566;2023-02-28T17:08:19;32.20;;;16.00;;
22144;SDS011;11238;48.730;11.566;2023-02-28T17:10:45;47.58;;;23.38;;
22144;SDS011;11238;48.730;11.566;2023-02-28T17:13:11;30.52;;;18.23;;